createdAt,value
2019-03-31T00:02:37.915Z,60.10
2019-03-31T00:05:42.819Z,60.00
2019-03-31T00:08:48.703Z,60.00
2019-03-31T00:11:53.624Z,60.00
2019-03-31T00:14:58.465Z,60.10
2019-03-31T00:18:03.247Z,60.30
2019-03-31T00:21:08.460Z,60.40
2019-03-31T00:24:14.096Z,60.10
2019-03-31T00:27:19.899Z,60.00
2019-03-31T00:30:25.178Z,59.80
2019-03-31T00:33:30.420Z,59.70
2019-03-31T00:36:36.193Z,59.70
2019-03-31T00:39:41.948Z,59.80
2019-03-31T00:42:46.788Z,59.70
2019-03-31T00:45:51.604Z,60.40
2019-03-31T00:48:56.366Z,59.70
2019-03-31T00:52:01.248Z,59.70
2019-03-31T00:55:07.316Z,59.90
2019-03-31T00:58:12.125Z,60.00
2019-03-31T01:01:36.641Z,60.10
2019-03-31T01:04:39.598Z,60.30
2019-03-31T01:07:44.481Z,60.50
2019-03-31T01:10:49.680Z,60.60
2019-03-31T01:13:54.604Z,60.80
2019-03-31T01:17:01.261Z,61.00
2019-03-31T01:20:06.351Z,61.00
2019-03-31T01:23:11.626Z,61.10
2019-03-31T01:26:19.806Z,61.10
2019-03-31T01:29:25.731Z,61.20
2019-03-31T01:32:30.606Z,61.10
2019-03-31T01:35:35.452Z,61.10
2019-03-31T01:38:40.698Z,61.00
2019-03-31T01:41:45.525Z,61.00
2019-03-31T01:44:50.913Z,61.00
2019-03-31T01:47:56.175Z,60.90
2019-03-31T01:51:02.031Z,60.90
2019-03-31T01:54:06.809Z,60.90
2019-03-31T01:57:11.593Z,60.90
2019-03-31T02:00:35.796Z,60.90
2019-03-31T02:03:40.648Z,61.00
2019-03-31T02:06:46.348Z,60.80
2019-03-31T02:09:51.216Z,60.80
2019-03-31T02:12:56.258Z,61.50
2019-03-31T02:16:01.141Z,60.70
2019-03-31T02:19:06.982Z,60.70
2019-03-31T02:22:11.865Z,60.80
2019-03-31T02:25:16.816Z,61.00
2019-03-31T02:28:23.048Z,61.10
2019-03-31T02:31:27.915Z,61.30
2019-03-31T02:34:32.862Z,61.20
2019-03-31T02:37:37.717Z,61.60
2019-03-31T02:40:42.520Z,61.30
2019-03-31T02:43:49.279Z,61.30
2019-03-31T02:46:54.519Z,61.40
2019-03-31T02:49:59.275Z,61.40
2019-03-31T02:53:05.126Z,61.80
2019-03-31T02:56:11.260Z,61.70
2019-03-31T02:59:18.263Z,61.80
2019-03-31T03:02:40.619Z,61.90
2019-03-31T03:05:33.331Z,62.00
2019-03-31T03:08:41.056Z,62.10
2019-03-31T03:11:48.131Z,62.10
2019-03-31T03:15:11.756Z,62.10
2019-03-31T03:18:16.958Z,61.60
2019-03-31T03:21:24.551Z,61.80
2019-03-31T03:24:29.960Z,61.60
2019-03-31T03:27:35.713Z,61.50
2019-03-31T03:30:40.774Z,61.50
2019-03-31T03:33:45.929Z,61.70
2019-03-31T03:36:50.789Z,61.80
2019-03-31T03:39:56.074Z,62.00
2019-03-31T03:43:00.988Z,62.20
2019-03-31T03:46:05.812Z,62.30
2019-03-31T03:49:10.808Z,62.50
2019-03-31T03:52:16.405Z,62.50
2019-03-31T03:55:22.569Z,63.40
2019-03-31T03:58:27.805Z,62.70
2019-03-31T04:01:33.163Z,62.60
2019-03-31T04:04:38.075Z,62.50
2019-03-31T04:07:42.839Z,62.40
2019-03-31T04:11:24.879Z,62.40
2019-03-31T04:14:29.814Z,62.30
2019-03-31T04:17:34.749Z,62.30
2019-03-31T04:20:39.810Z,62.30
2019-03-31T04:23:45.385Z,62.20
2019-03-31T04:26:50.259Z,62.20
2019-03-31T04:29:55.164Z,62.20
2019-03-31T04:33:00.031Z,62.10
2019-03-31T04:36:04.998Z,62.00
2019-03-31T04:39:09.890Z,62.00
2019-03-31T04:42:15.153Z,62.20
2019-03-31T04:45:20.376Z,62.10
2019-03-31T04:48:25.633Z,61.90
2019-03-31T04:51:30.546Z,62.00
2019-03-31T04:54:36.278Z,62.10
2019-03-31T04:57:41.184Z,62.00
2019-03-31T05:01:04.813Z,61.90
2019-03-31T05:04:11.583Z,61.80
2019-03-31T05:07:16.896Z,61.80
2019-03-31T05:10:22.506Z,61.80
2019-03-31T05:13:28.301Z,61.90
2019-03-31T05:16:33.215Z,62.20
2019-03-31T05:19:38.077Z,62.40
2019-03-31T05:22:43.043Z,62.60
2019-03-31T05:25:49.144Z,62.80
2019-03-31T05:28:54.320Z,62.90
2019-03-31T05:31:59.222Z,63.20
2019-03-31T05:35:04.166Z,64.10
2019-03-31T05:38:09.367Z,65.10
2019-03-31T05:41:14.619Z,66.00
2019-03-31T05:44:20.730Z,66.80
2019-03-31T05:47:25.572Z,66.90
2019-03-31T05:50:30.680Z,65.90
2019-03-31T05:53:35.629Z,64.80
2019-03-31T05:56:40.557Z,64.40
2019-03-31T05:59:45.698Z,63.10
2019-03-31T06:02:50.551Z,62.60
2019-03-31T06:05:55.732Z,62.40
2019-03-31T06:09:00.580Z,62.30
2019-03-31T06:12:05.433Z,62.20
2019-03-31T06:15:11.950Z,62.70
2019-03-31T06:18:16.816Z,62.00
2019-03-31T06:21:22.062Z,62.00
2019-03-31T06:24:28.374Z,62.00
2019-03-31T06:27:33.260Z,61.90
2019-03-31T06:30:38.554Z,62.10
2019-03-31T06:33:43.387Z,62.00
2019-03-31T06:36:49.200Z,61.90
2019-03-31T06:40:05.135Z,61.90
2019-03-31T06:43:10.942Z,61.80
2019-03-31T06:46:18.235Z,61.90
2019-03-31T06:49:23.418Z,61.90
2019-03-31T06:52:29.356Z,61.80
2019-03-31T06:55:34.645Z,61.70
2019-03-31T06:58:39.953Z,61.40
2019-03-31T07:01:45.261Z,61.40
2019-03-31T07:05:00.900Z,61.50
2019-03-31T07:07:57.765Z,62.40
2019-03-31T07:11:02.972Z,63.00
2019-03-31T07:14:07.908Z,64.20
2019-03-31T07:17:13.135Z,65.10
2019-03-31T07:20:18.302Z,65.50
2019-03-31T07:23:23.791Z,65.60
2019-03-31T07:26:28.621Z,65.20
2019-03-31T07:29:34.659Z,64.90
2019-03-31T07:32:39.532Z,64.10
2019-03-31T07:35:45.409Z,63.70
2019-03-31T07:38:50.425Z,62.80
2019-03-31T07:41:55.447Z,61.70
2019-03-31T07:45:00.459Z,61.40
2019-03-31T07:48:08.124Z,61.60
2019-03-31T07:51:12.333Z,60.60
2019-03-31T07:54:17.225Z,61.10
2019-03-31T07:57:23.076Z,59.40
2019-03-31T08:00:29.036Z,59.00
2019-03-31T08:03:33.897Z,58.50
2019-03-31T08:06:38.768Z,58.20
2019-03-31T08:09:43.539Z,57.70
2019-03-31T08:12:48.403Z,57.30
2019-03-31T08:15:54.333Z,56.60
2019-03-31T08:18:59.533Z,56.40
2019-03-31T08:22:04.987Z,56.30
2019-03-31T08:25:21.343Z,56.10
2019-03-31T08:28:27.114Z,55.80
2019-03-31T08:31:31.968Z,55.30
2019-03-31T08:34:36.844Z,54.60
2019-03-31T08:37:41.729Z,55.00
2019-03-31T08:40:47.022Z,54.40
2019-03-31T08:43:51.894Z,53.90
2019-03-31T08:46:56.768Z,53.50
2019-03-31T08:50:02.724Z,53.50
2019-03-31T08:53:07.806Z,52.60
2019-03-31T08:56:12.689Z,52.80
2019-03-31T08:59:17.927Z,53.10
2019-03-31T09:02:24.476Z,52.50
2019-03-31T09:05:29.524Z,52.30
2019-03-31T09:08:34.893Z,49.80
2019-03-31T09:11:40.082Z,50.20
2019-03-31T09:14:45.274Z,50.90
2019-03-31T09:17:50.055Z,49.50
2019-03-31T09:21:00.150Z,50.30
2019-03-31T09:24:04.979Z,50.50
2019-03-31T09:27:11.066Z,51.20
2019-03-31T09:30:35.397Z,50.70
2019-03-31T09:33:43.374Z,50.00
2019-03-31T09:36:48.256Z,50.00
2019-03-31T09:39:53.155Z,47.40
2019-03-31T09:42:58.038Z,47.10
2019-03-31T09:46:03.452Z,46.10
2019-03-31T09:49:08.471Z,47.60
2019-03-31T09:52:13.640Z,48.60
2019-03-31T09:55:22.853Z,45.10
2019-03-31T09:58:26.095Z,46.50
2019-03-31T10:01:34.028Z,47.60
2019-03-31T10:04:39.692Z,46.90
2019-03-31T10:07:45.887Z,47.20
2019-03-31T10:10:52.672Z,46.30
2019-03-31T10:13:57.545Z,45.90
2019-03-31T10:17:02.501Z,43.50
2019-03-31T10:20:08.421Z,43.80
2019-03-31T10:23:13.805Z,44.70
2019-03-31T10:26:31.998Z,44.70
2019-03-31T10:29:38.580Z,43.40
2019-03-31T10:32:44.337Z,44.80
2019-03-31T10:35:49.157Z,43.90
2019-03-31T10:38:53.998Z,42.20
2019-03-31T10:41:58.914Z,42.80
2019-03-31T10:45:04.491Z,44.80
2019-03-31T10:48:20.394Z,46.90
2019-03-31T10:51:25.554Z,47.50
2019-03-31T10:54:30.446Z,46.00
2019-03-31T10:57:35.420Z,44.70
2019-03-31T11:00:44.676Z,45.90
2019-03-31T11:03:50.703Z,45.30
2019-03-31T11:06:59.550Z,46.50
2019-03-31T11:10:02.205Z,46.30
2019-03-31T11:13:07.341Z,47.80
2019-03-31T11:16:12.205Z,45.90
2019-03-31T11:19:22.773Z,47.00
2019-03-31T11:22:42.604Z,47.00
2019-03-31T11:25:52.102Z,46.50
2019-03-31T11:28:57.827Z,47.60
2019-03-31T11:32:13.657Z,48.10
2019-03-31T11:35:22.828Z,48.20
2019-03-31T11:38:34.680Z,48.10
2019-03-31T11:41:45.630Z,46.50
2019-03-31T11:44:58.388Z,46.90
2019-03-31T11:48:11.881Z,47.00
2019-03-31T11:51:21.790Z,48.00
2019-03-31T11:54:34.315Z,48.30
2019-03-31T11:57:39.357Z,48.10
2019-03-31T12:00:49.994Z,47.60
2019-03-31T12:03:54.801Z,47.20
2019-03-31T12:06:59.681Z,47.80
2019-03-31T12:10:08.278Z,49.10
2019-03-31T12:13:13.220Z,49.40
2019-03-31T12:16:18.014Z,48.60
2019-03-31T12:19:22.803Z,48.70
2019-03-31T12:22:46.465Z,48.60
2019-03-31T12:25:51.353Z,48.10
2019-03-31T12:28:56.226Z,49.20
2019-03-31T12:32:03.644Z,49.50
2019-03-31T12:35:08.989Z,48.60
2019-03-31T12:38:14.600Z,49.40
2019-03-31T12:41:19.458Z,48.20
2019-03-31T12:44:25.234Z,48.80
2019-03-31T12:47:30.286Z,48.40
2019-03-31T12:50:35.099Z,48.50
2019-03-31T12:53:39.887Z,49.30
2019-03-31T12:56:45.219Z,49.80
2019-03-31T12:59:50.114Z,49.60
2019-03-31T13:02:55.341Z,49.30
2019-03-31T13:06:02.595Z,49.30
2019-03-31T13:09:08.677Z,49.40
2019-03-31T13:12:13.544Z,49.70
2019-03-31T13:15:18.402Z,50.20
2019-03-31T13:18:23.309Z,50.10
2019-03-31T13:21:28.103Z,48.40
2019-03-31T13:24:34.195Z,48.50
2019-03-31T13:27:39.594Z,48.90
2019-03-31T13:30:44.565Z,48.80
2019-03-31T13:33:49.474Z,48.50
2019-03-31T13:36:54.951Z,49.20
2019-03-31T13:39:59.836Z,49.40
2019-03-31T13:43:04.746Z,49.40
2019-03-31T13:46:09.690Z,50.00
2019-03-31T13:49:14.696Z,49.90
2019-03-31T13:52:19.528Z,50.10
2019-03-31T13:55:25.381Z,50.10
2019-03-31T13:58:30.550Z,50.30
2019-03-31T14:01:35.830Z,50.70
2019-03-31T14:04:51.592Z,50.80
2019-03-31T14:07:48.946Z,51.30
2019-03-31T14:10:53.895Z,51.60
2019-03-31T14:13:58.822Z,51.70
2019-03-31T14:17:04.684Z,51.90
2019-03-31T14:20:09.955Z,51.60
2019-03-31T14:23:15.142Z,51.60
2019-03-31T14:26:19.918Z,52.00
2019-03-31T14:29:24.817Z,52.30
2019-03-31T14:32:29.758Z,52.40
2019-03-31T14:35:37.833Z,52.30
2019-03-31T14:38:41.139Z,52.30
2019-03-31T14:41:46.385Z,52.60
2019-03-31T14:44:51.186Z,53.10
2019-03-31T14:47:56.101Z,53.30
2019-03-31T14:51:00.976Z,53.40
2019-03-31T14:54:05.839Z,53.50
2019-03-31T14:57:10.998Z,53.40
2019-03-31T15:00:16.181Z,53.60
2019-03-31T15:03:21.029Z,53.80
2019-03-31T15:06:25.833Z,54.10
2019-03-31T15:09:31.232Z,54.20
2019-03-31T15:12:36.090Z,54.50
2019-03-31T15:15:40.920Z,54.70
2019-03-31T15:18:46.249Z,54.60
2019-03-31T15:21:54.439Z,54.70
2019-03-31T15:25:01.091Z,54.50
2019-03-31T15:28:05.988Z,54.90
2019-03-31T15:31:11.323Z,55.00
2019-03-31T15:34:16.660Z,55.10
2019-03-31T15:37:21.872Z,55.50
2019-03-31T15:40:26.857Z,55.70
2019-03-31T15:43:31.713Z,55.80
2019-03-31T15:46:38.056Z,55.90
2019-03-31T15:49:42.910Z,56.00
2019-03-31T15:52:47.851Z,56.10
2019-03-31T15:55:53.560Z,56.20
2019-03-31T15:59:00.492Z,56.40
2019-03-31T16:02:05.441Z,56.70
2019-03-31T16:05:12.846Z,56.60
2019-03-31T16:08:17.824Z,56.70
2019-03-31T16:11:22.220Z,56.90
2019-03-31T16:14:26.945Z,56.90
2019-03-31T16:17:31.325Z,56.90
2019-03-31T16:20:36.070Z,57.00
2019-03-31T16:23:40.515Z,57.10
2019-03-31T16:26:44.888Z,57.10
2019-03-31T16:29:49.631Z,57.20
2019-03-31T16:32:53.860Z,57.20
2019-03-31T16:35:58.294Z,57.40
2019-03-31T16:39:03.671Z,57.40
2019-03-31T16:42:08.060Z,57.40
2019-03-31T16:45:12.863Z,57.40
2019-03-31T16:48:17.589Z,57.50
2019-03-31T16:51:22.335Z,57.50
2019-03-31T16:54:26.984Z,57.60
2019-03-31T16:57:31.363Z,57.70
2019-03-31T17:00:36.040Z,57.70
2019-03-31T17:03:40.425Z,57.90
2019-03-31T17:06:44.842Z,57.90
2019-03-31T17:09:51.656Z,58.10
2019-03-31T17:12:55.256Z,58.20
2019-03-31T17:15:59.915Z,58.30
2019-03-31T17:19:04.249Z,58.20
2019-03-31T17:22:08.607Z,58.30
2019-03-31T17:25:13.216Z,58.20
2019-03-31T17:28:17.596Z,58.20
2019-03-31T17:31:21.991Z,58.30
2019-03-31T17:34:26.659Z,58.30
2019-03-31T17:37:31.912Z,58.50
2019-03-31T17:40:36.433Z,58.60
2019-03-31T17:43:41.068Z,58.60
2019-03-31T17:46:45.500Z,58.70
2019-03-31T17:49:50.245Z,58.90
2019-03-31T17:52:55.162Z,58.80
2019-03-31T17:56:02.759Z,58.80
2019-03-31T17:59:08.892Z,58.80
2019-03-31T18:02:13.498Z,58.90
2019-03-31T18:05:18.234Z,59.00
2019-03-31T18:08:22.557Z,59.00
2019-03-31T18:11:26.809Z,59.30
2019-03-31T18:14:31.152Z,59.40
2019-03-31T18:17:36.805Z,59.20
2019-03-31T18:20:41.915Z,59.20
2019-03-31T18:23:48.940Z,59.20
2019-03-31T18:26:53.355Z,59.20
2019-03-31T18:29:58.137Z,59.20
2019-03-31T18:33:04.111Z,59.20
2019-03-31T18:36:08.464Z,58.60
2019-03-31T18:39:13.194Z,59.00
2019-03-31T18:42:17.530Z,59.00
2019-03-31T18:45:21.887Z,59.00
2019-03-31T18:48:26.208Z,59.10
2019-03-31T18:51:30.569Z,59.10
2019-03-31T18:55:03.343Z,59.10
2019-03-31T18:58:15.071Z,59.10
2019-03-31T19:01:26.020Z,59.00
2019-03-31T19:04:57.578Z,59.20
2019-03-31T19:08:33.521Z,59.10
2019-03-31T19:12:05.980Z,59.10
2019-03-31T19:15:39.200Z,59.30
2019-03-31T19:19:01.960Z,59.10
2019-03-31T19:22:25.646Z,59.00
2019-03-31T19:25:52.359Z,59.00
2019-03-31T19:29:10.464Z,59.10
2019-03-31T19:32:33.321Z,59.10
2019-03-31T19:35:50.180Z,59.10
2019-03-31T19:39:20.407Z,59.20
2019-03-31T19:42:48.897Z,59.30
2019-03-31T19:46:13.353Z,59.30
2019-03-31T19:49:36.349Z,59.20
2019-03-31T19:52:54.981Z,59.30
2019-03-31T19:56:31.179Z,59.00
2019-03-31T20:00:01.207Z,59.10
2019-03-31T20:03:34.198Z,59.10
2019-03-31T20:06:56.707Z,59.00
2019-03-31T20:10:16.733Z,59.00
2019-03-31T20:13:43.176Z,58.90
2019-03-31T20:17:12.298Z,59.00
2019-03-31T20:20:44.638Z,59.10
2019-03-31T20:24:16.736Z,59.30
2019-03-31T20:27:41.617Z,59.10
2019-03-31T20:30:56.200Z,58.60
2019-03-31T20:34:47.668Z,59.10
2019-03-31T20:38:16.815Z,59.20
2019-03-31T20:41:43.453Z,58.90
2019-03-31T20:44:47.770Z,59.00
2019-03-31T20:47:52.088Z,59.00
2019-03-31T20:50:56.799Z,59.00
2019-03-31T20:54:02.326Z,58.70
2019-03-31T20:57:07.131Z,58.80
2019-03-31T21:00:12.030Z,58.80
2019-03-31T21:03:16.358Z,58.80
2019-03-31T21:06:20.725Z,58.70
2019-03-31T21:09:25.299Z,58.60
2019-03-31T21:12:29.681Z,58.60
2019-03-31T21:15:34.034Z,58.50
2019-03-31T21:18:42.327Z,58.40
2019-03-31T21:21:46.739Z,58.10
2019-03-31T21:24:51.071Z,58.50
2019-03-31T21:27:55.649Z,58.60
2019-03-31T21:30:59.898Z,58.70
2019-03-31T21:34:04.594Z,58.70
2019-03-31T21:37:08.891Z,58.80
2019-03-31T21:40:13.652Z,58.80
2019-03-31T21:43:17.990Z,58.80
2019-03-31T21:46:22.415Z,58.90
2019-03-31T21:49:27.120Z,59.00
2019-03-31T21:52:31.921Z,59.10
2019-03-31T21:55:36.495Z,59.10
2019-03-31T21:58:41.257Z,59.20
2019-03-31T22:01:45.999Z,59.30
2019-03-31T22:04:50.318Z,59.40
2019-03-31T22:07:55.040Z,59.40
2019-03-31T22:10:59.755Z,59.40
2019-03-31T22:14:16.176Z,59.60
2019-03-31T22:17:22.116Z,59.50
2019-03-31T22:20:26.749Z,59.70
2019-03-31T22:23:31.030Z,59.80
2019-03-31T22:26:36.840Z,59.70
2019-03-31T22:29:41.201Z,59.80
2019-03-31T22:32:45.608Z,59.90
2019-03-31T22:36:07.952Z,59.40
2019-03-31T22:39:12.329Z,59.90
2019-03-31T22:42:16.629Z,59.80
2019-03-31T22:45:21.187Z,59.80
2019-03-31T22:48:25.999Z,59.90
2019-03-31T22:51:30.634Z,60.00
2019-03-31T22:54:34.899Z,60.10
2019-03-31T22:57:39.317Z,60.10
2019-03-31T23:00:43.621Z,60.20
2019-03-31T23:03:48.026Z,60.20
2019-03-31T23:06:52.344Z,60.30
2019-03-31T23:09:57.066Z,60.40
2019-03-31T23:13:01.389Z,60.30
2019-03-31T23:16:06.226Z,60.30
2019-03-31T23:19:10.587Z,60.30
2019-03-31T23:22:14.893Z,61.00
2019-03-31T23:25:19.897Z,60.30
2019-03-31T23:28:24.292Z,60.40
2019-03-31T23:31:28.729Z,60.40
2019-03-31T23:34:33.397Z,60.40
2019-03-31T23:37:38.136Z,60.50
2019-03-31T23:40:42.785Z,60.50
2019-03-31T23:43:49.065Z,60.50
2019-03-31T23:46:53.330Z,60.60
2019-03-31T23:49:58.317Z,60.60
2019-03-31T23:53:02.661Z,60.60
2019-03-31T23:56:07.045Z,61.30
2019-03-31T23:59:11.391Z,60.30
